createdAt,value
2018-06-17T00:01:40.613Z,13.70
2018-06-17T00:04:10.284Z,14.67
2018-06-17T00:06:41.194Z,15.73
2018-06-17T00:09:12.168Z,14.57
2018-06-17T00:11:43.423Z,14.40
2018-06-17T00:14:14.323Z,15.20
2018-06-17T00:16:45.803Z,14.70
2018-06-17T00:19:16.866Z,13.90
2018-06-17T00:21:48.777Z,13.63
2018-06-17T00:24:19.906Z,13.30
2018-06-17T00:26:51.276Z,12.90
2018-06-17T00:29:22.363Z,13.40
2018-06-17T00:31:54.548Z,13.67
2018-06-17T00:34:25.691Z,13.13
2018-06-17T00:36:56.800Z,14.23
2018-06-17T00:39:27.858Z,14.53
2018-06-17T00:41:59.762Z,13.90
2018-06-17T00:44:31.002Z,13.67
2018-06-17T00:47:03.945Z,14.40
2018-06-17T00:49:35.846Z,13.93
2018-06-17T00:52:07.222Z,13.30
2018-06-17T00:54:38.352Z,14.13
2018-06-17T00:57:19.566Z,13.60
2018-06-17T00:59:50.715Z,13.40
2018-06-17T01:02:23.564Z,12.63
2018-06-17T01:04:54.419Z,12.77
2018-06-17T01:07:25.458Z,13.53
2018-06-17T01:09:57.411Z,12.60
2018-06-17T01:12:29.227Z,12.90
2018-06-17T01:15:00.135Z,13.50
2018-06-17T01:17:31.074Z,13.17
2018-06-17T01:20:02.153Z,11.87
2018-06-17T01:22:33.511Z,11.80
2018-06-17T01:25:04.369Z,12.33
2018-06-17T01:27:35.533Z,11.60
2018-06-17T01:30:06.564Z,10.67
2018-06-17T01:32:38.589Z,11.67
2018-06-17T01:35:09.752Z,10.50
2018-06-17T01:37:40.824Z,11.33
2018-06-17T01:40:12.180Z,11.10
2018-06-17T01:42:43.487Z,11.40
2018-06-17T01:45:14.552Z,10.53
2018-06-17T01:47:46.600Z,10.23
2018-06-17T01:50:17.664Z,9.97
2018-06-17T01:52:50.538Z,9.37
2018-06-17T01:55:21.737Z,10.27
2018-06-17T01:57:53.064Z,8.73
2018-06-17T02:00:24.169Z,8.77
2018-06-17T02:02:55.133Z,8.63
2018-06-17T02:05:31.806Z,9.90
2018-06-17T02:08:07.623Z,7.90
2018-06-17T02:10:43.346Z,8.17
2018-06-17T02:13:14.558Z,8.20
2018-06-17T02:15:45.613Z,7.27
2018-06-17T02:18:16.551Z,7.70
2018-06-17T02:20:47.634Z,7.20
2018-06-17T02:23:20.666Z,8.40
2018-06-17T02:25:51.893Z,7.20
2018-06-17T02:28:23.086Z,7.43
2018-06-17T02:30:54.193Z,7.97
2018-06-17T02:33:25.697Z,7.47
2018-06-17T02:35:56.798Z,7.00
2018-06-17T02:38:28.015Z,7.10
2018-06-17T02:40:58.936Z,6.73
2018-06-17T02:43:30.126Z,6.93
2018-06-17T02:46:06.104Z,7.87
2018-06-17T02:48:42.157Z,7.43
2018-06-17T02:51:17.867Z,6.90
2018-06-17T02:53:53.765Z,7.03
2018-06-17T02:56:24.736Z,7.37
2018-06-17T02:58:57.487Z,6.93
2018-06-17T03:01:28.553Z,7.63
2018-06-17T03:03:59.932Z,6.93
2018-06-17T03:06:31.101Z,8.00
2018-06-17T03:09:02.171Z,7.97
2018-06-17T03:11:33.071Z,6.97
2018-06-17T03:14:04.199Z,7.37
2018-06-17T03:16:35.448Z,6.13
2018-06-17T03:19:06.651Z,6.13
2018-06-17T03:21:38.824Z,6.00
2018-06-17T03:24:13.719Z,6.53
2018-06-17T03:26:49.809Z,6.77
2018-06-17T03:29:25.479Z,6.40
2018-06-17T03:32:02.004Z,5.83
2018-06-17T03:34:32.793Z,5.37
2018-06-17T03:37:03.921Z,6.57
2018-06-17T03:39:35.089Z,6.20
2018-06-17T03:42:06.069Z,6.80
2018-06-17T03:44:37.113Z,5.70
2018-06-17T03:47:08.499Z,6.10
2018-06-17T03:49:40.570Z,5.53
2018-06-17T03:52:11.497Z,6.23
2018-06-17T03:54:43.347Z,5.70
2018-06-17T03:57:15.218Z,6.23
2018-06-17T03:59:46.974Z,6.63
2018-06-17T04:02:18.040Z,6.13
2018-06-17T04:04:54.184Z,6.97
2018-06-17T04:07:25.363Z,6.53
2018-06-17T04:09:56.362Z,6.60
2018-06-17T04:12:27.341Z,6.60
2018-06-17T04:14:59.220Z,6.87
2018-06-17T04:20:12.888Z,7.00
2018-06-17T04:22:43.613Z,7.43
2018-06-17T04:25:15.521Z,7.40
2018-06-17T04:27:46.502Z,7.90
2018-06-17T04:30:17.667Z,7.10
2018-06-17T04:32:48.653Z,7.67
2018-06-17T04:35:20.648Z,7.83
2018-06-17T04:37:51.710Z,8.23
2018-06-17T04:40:22.727Z,7.80
2018-06-17T04:45:29.980Z,8.07
2018-06-17T04:48:01.005Z,7.80
2018-06-17T04:50:32.112Z,8.33
2018-06-17T04:53:03.300Z,8.20
2018-06-17T04:55:35.545Z,9.23
2018-06-17T05:00:58.762Z,9.70
2018-06-17T05:03:33.552Z,8.10
2018-06-17T05:06:05.807Z,8.83
2018-06-17T05:08:37.081Z,9.53
2018-06-17T05:11:08.063Z,9.40
2018-06-17T05:13:42.585Z,9.20
2018-06-17T05:16:20.174Z,9.67
2018-06-17T05:18:54.647Z,8.50
2018-06-17T05:21:25.730Z,9.50
2018-06-17T05:24:05.486Z,8.97
2018-06-17T05:26:37.555Z,9.40
2018-06-17T05:29:14.019Z,10.30
2018-06-17T05:31:44.666Z,10.77
2018-06-17T05:34:15.359Z,9.90
2018-06-17T05:36:46.403Z,10.73
2018-06-17T05:39:19.098Z,10.60
2018-06-17T05:41:59.168Z,10.60
2018-06-17T05:44:34.088Z,10.40
2018-06-17T05:47:05.314Z,10.73
2018-06-17T05:49:46.864Z,10.10
2018-06-17T05:54:57.888Z,9.47
2018-06-17T06:00:24.207Z,9.70
2018-06-17T06:02:54.871Z,8.97
2018-06-17T06:05:25.611Z,8.87
2018-06-17T06:07:56.377Z,9.10
2018-06-17T06:10:27.169Z,9.30
2018-06-17T06:12:57.862Z,8.80
2018-06-17T06:15:29.736Z,9.80
2018-06-17T06:18:12.971Z,8.90
2018-06-17T06:20:43.681Z,9.80
2018-06-17T06:23:14.284Z,9.73
2018-06-17T06:25:50.180Z,9.70
2018-06-17T06:28:20.793Z,8.90
2018-06-17T06:31:03.931Z,9.33
2018-06-17T06:36:23.633Z,9.30
2018-06-17T06:39:07.058Z,9.10
2018-06-17T06:41:38.776Z,10.10
2018-06-17T06:44:10.461Z,9.10
2018-06-17T06:46:41.630Z,9.30
2018-06-17T06:49:12.243Z,9.93
2018-06-17T06:51:49.336Z,9.90
2018-06-17T06:57:09.314Z,10.37
2018-06-17T06:59:45.767Z,10.27
2018-06-17T07:02:28.228Z,9.83
2018-06-17T07:05:15.635Z,9.30
2018-06-17T07:10:44.067Z,9.80
2018-06-17T07:13:18.294Z,9.90
2018-06-17T07:16:07.047Z,9.60
2018-06-17T07:21:26.029Z,9.60
2018-06-17T07:24:00.911Z,8.83
2018-06-17T07:29:44.165Z,10.30
2018-06-17T07:32:15.633Z,10.07
2018-06-17T07:34:51.725Z,10.80
2018-06-17T07:37:22.660Z,10.10
2018-06-17T07:41:01.718Z,10.70
2018-06-17T07:43:33.569Z,10.93
2018-06-17T07:46:10.409Z,10.00
2018-06-17T07:49:54.584Z,9.27
2018-06-17T07:52:40.817Z,10.00
2018-06-17T07:55:19.483Z,10.77
2018-06-17T07:57:51.650Z,10.43
2018-06-17T08:00:27.958Z,11.30
2018-06-17T08:03:04.248Z,10.33
2018-06-17T08:05:38.989Z,10.93
2018-06-17T08:08:17.462Z,11.90
2018-06-17T08:10:48.320Z,10.83
2018-06-17T08:13:22.936Z,10.70
2018-06-17T08:16:06.257Z,11.83
2018-06-17T08:18:36.828Z,11.83
2018-06-17T08:21:07.609Z,12.37
2018-06-17T08:23:49.153Z,11.47
2018-06-17T08:26:35.532Z,12.33
2018-06-17T08:29:06.302Z,12.70
2018-06-17T08:31:37.200Z,13.20
2018-06-17T08:34:07.973Z,11.77
2018-06-17T08:36:41.917Z,11.90
2018-06-17T08:39:15.351Z,12.20
2018-06-17T08:44:57.461Z,10.47
2018-06-17T08:47:35.978Z,11.50
2018-06-17T08:50:07.220Z,10.43
2018-06-17T08:52:43.296Z,12.00
2018-06-17T08:55:23.226Z,11.57
2018-06-17T09:00:49.446Z,12.80
2018-06-17T09:03:33.365Z,11.07
2018-06-17T09:06:06.047Z,10.73
2018-06-17T09:11:36.933Z,11.20
2018-06-17T09:14:10.090Z,10.40
2018-06-17T09:16:43.374Z,11.93
2018-06-17T09:19:14.816Z,11.20
2018-06-17T09:21:55.861Z,9.70
2018-06-17T09:24:29.979Z,10.73
2018-06-17T09:27:00.876Z,10.63
2018-06-17T09:29:38.548Z,10.70
2018-06-17T09:32:11.079Z,10.10
2018-06-17T09:37:34.586Z,10.17
2018-06-17T09:40:14.954Z,11.00
2018-06-17T09:42:45.509Z,11.27
2018-06-17T09:45:16.490Z,10.97
2018-06-17T09:47:58.789Z,12.03
2018-06-17T09:50:38.764Z,10.90
2018-06-17T09:53:09.537Z,10.30
2018-06-17T09:55:41.563Z,10.00
2018-06-17T09:58:12.067Z,11.80
2018-06-17T10:00:42.445Z,9.30
2018-06-17T10:03:22.108Z,8.90
2018-06-17T10:06:09.935Z,9.57
2018-06-17T10:08:46.524Z,9.80
2018-06-17T10:11:16.789Z,8.70
2018-06-17T10:13:57.928Z,10.07
2018-06-17T10:16:29.160Z,10.10
2018-06-17T10:19:06.132Z,10.67
2018-06-17T10:21:50.263Z,8.50
2018-06-17T10:27:20.785Z,9.57
2018-06-17T10:30:15.277Z,10.33
2018-06-17T10:32:46.003Z,8.17
2018-06-17T10:35:16.647Z,9.63
2018-06-17T10:37:47.278Z,8.73
2018-06-17T10:40:34.030Z,9.40
2018-06-17T10:43:14.240Z,8.90
2018-06-17T10:45:57.895Z,7.57
2018-06-17T10:48:28.646Z,9.20
2018-06-17T10:50:59.297Z,9.97
2018-06-17T10:56:24.851Z,9.30
2018-06-17T10:58:55.466Z,9.80
2018-06-17T11:04:17.918Z,10.37
2018-06-17T11:07:06.080Z,10.70
2018-06-17T11:12:21.835Z,11.00
2018-06-17T11:20:29.620Z,10.60
2018-06-17T11:23:00.690Z,9.63
2018-06-17T11:25:31.706Z,10.13
2018-06-17T11:33:37.041Z,10.23
2018-06-17T11:36:12.732Z,9.77
2018-06-17T11:39:04.338Z,9.67
2018-06-17T11:41:50.966Z,9.53
2018-06-17T11:44:23.344Z,11.90
2018-06-17T11:49:51.277Z,13.40
2018-06-17T11:52:28.190Z,13.13
2018-06-17T11:55:04.958Z,12.80
2018-06-17T11:57:35.637Z,13.43
2018-06-17T12:00:07.029Z,11.30
2018-06-17T12:02:37.715Z,9.73
2018-06-17T12:05:08.427Z,10.57
2018-06-17T12:10:34.331Z,17.27
2018-06-17T12:13:05.242Z,9.43
2018-06-17T12:18:21.518Z,8.80
2018-06-17T12:23:51.638Z,10.00
2018-06-17T12:32:08.420Z,8.70
2018-06-17T12:34:50.339Z,11.27
2018-06-17T12:40:31.751Z,15.07
2018-06-17T12:43:02.458Z,15.30
2018-06-17T12:45:33.253Z,14.60
2018-06-17T12:48:18.079Z,14.00
2018-06-17T12:51:06.280Z,18.83
2018-06-17T12:53:36.996Z,14.20
2018-06-17T12:56:08.269Z,13.73
2018-06-17T12:58:39.149Z,12.73
2018-06-17T13:01:14.921Z,13.90
2018-06-17T13:03:45.569Z,14.00
2018-06-17T13:06:27.561Z,11.87
2018-06-17T13:08:58.295Z,10.40
2018-06-17T13:11:29.685Z,10.53
2018-06-17T13:14:00.361Z,9.93
2018-06-17T13:16:31.060Z,9.60
2018-06-17T13:19:01.773Z,8.77
2018-06-17T13:21:32.478Z,11.00
2018-06-17T13:24:03.396Z,9.83
2018-06-17T13:26:34.000Z,9.37
2018-06-17T13:29:04.982Z,8.33
2018-06-17T13:31:35.632Z,8.87
2018-06-17T13:34:06.811Z,8.50
2018-06-17T13:36:37.604Z,7.70
2018-06-17T13:39:10.445Z,9.30
2018-06-17T13:41:41.161Z,8.10
2018-06-17T13:44:11.911Z,8.30
2018-06-17T13:46:42.768Z,7.70
2018-06-17T13:49:13.474Z,8.83
2018-06-17T13:51:44.175Z,7.80
2018-06-17T13:54:14.948Z,8.40
2018-06-17T13:56:45.759Z,8.00
2018-06-17T13:59:16.855Z,8.40
2018-06-17T14:01:47.611Z,7.57
2018-06-17T14:04:18.534Z,7.83
2018-06-17T14:06:49.452Z,7.70
2018-06-17T14:09:25.155Z,7.40
2018-06-17T14:11:57.499Z,8.60
2018-06-17T14:14:28.276Z,6.90
2018-06-17T14:17:00.000Z,7.43
2018-06-17T14:19:30.780Z,7.83
2018-06-17T14:22:01.414Z,8.53
2018-06-17T14:24:32.185Z,7.87
2018-06-17T14:27:02.893Z,8.40
2018-06-17T14:29:33.668Z,8.40
2018-06-17T14:32:04.544Z,8.97
2018-06-17T14:34:35.137Z,7.63
2018-06-17T14:37:06.070Z,8.57
2018-06-17T14:39:38.058Z,10.03
2018-06-17T14:42:13.622Z,8.67
2018-06-17T14:44:49.429Z,9.63
2018-06-17T14:47:24.897Z,8.00
2018-06-17T14:50:00.769Z,9.00
2018-06-17T14:52:36.391Z,8.20
2018-06-17T14:55:07.285Z,7.90
2018-06-17T14:57:37.974Z,9.33
2018-06-17T15:00:08.755Z,9.00
2018-06-17T15:02:39.422Z,8.50
2018-06-17T15:05:10.323Z,9.27
2018-06-17T15:07:48.262Z,9.53
2018-06-17T15:10:19.245Z,8.40
2018-06-17T15:12:50.085Z,13.00
2018-06-17T15:15:20.778Z,10.07
2018-06-17T15:17:51.621Z,10.93
2018-06-17T15:20:22.283Z,36.40
2018-06-17T15:22:53.018Z,34.77
2018-06-17T15:25:23.645Z,12.80
2018-06-17T15:27:54.397Z,11.83
2018-06-17T15:30:25.201Z,10.17
2018-06-17T15:34:00.395Z,11.00
2018-06-17T15:36:36.207Z,9.53
2018-06-17T15:39:14.807Z,9.00
2018-06-17T15:41:45.957Z,9.10
2018-06-17T15:44:16.618Z,9.27
2018-06-17T15:46:47.314Z,10.07
2018-06-17T15:49:17.943Z,11.23
2018-06-17T15:51:48.738Z,11.63
2018-06-17T15:54:19.662Z,11.07
2018-06-17T15:56:50.338Z,9.77
2018-06-17T15:59:21.008Z,10.13
2018-06-17T16:01:51.772Z,9.27
2018-06-17T16:04:22.505Z,8.57
2018-06-17T16:06:53.263Z,8.60
2018-06-17T16:09:30.893Z,8.77
2018-06-17T16:12:07.691Z,8.73
2018-06-17T16:14:43.821Z,8.50
2018-06-17T16:17:19.811Z,9.00
2018-06-17T16:19:55.705Z,9.53
2018-06-17T16:22:26.713Z,10.27
2018-06-17T16:24:57.724Z,8.30
2018-06-17T16:27:29.197Z,8.00
2018-06-17T16:30:00.775Z,10.13
2018-06-17T16:32:32.113Z,9.20
2018-06-17T16:35:03.569Z,9.30
2018-06-17T16:37:36.161Z,8.73
2018-06-17T16:40:09.609Z,9.30
2018-06-17T16:42:41.146Z,8.30
2018-06-17T16:45:12.481Z,9.40
2018-06-17T16:47:43.948Z,10.03
2018-06-17T16:50:15.276Z,11.40
2018-06-17T16:52:51.135Z,10.53
2018-06-17T16:55:26.804Z,11.63
2018-06-17T16:58:02.560Z,10.60
2018-06-17T17:00:33.170Z,10.13
2018-06-17T17:03:03.870Z,11.47
2018-06-17T17:05:34.404Z,12.00
2018-06-17T17:08:05.212Z,11.97
2018-06-17T17:10:35.921Z,11.00
2018-06-17T17:13:06.587Z,11.90
2018-06-17T17:15:37.339Z,12.33
2018-06-17T17:18:08.083Z,13.20
2018-06-17T17:20:38.755Z,15.17
2018-06-17T17:23:09.763Z,14.10
2018-06-17T17:25:40.448Z,14.30
2018-06-17T17:28:11.541Z,15.33
2018-06-17T17:30:46.441Z,16.40
2018-06-17T17:33:22.098Z,14.73
2018-06-17T17:35:57.549Z,13.07
2018-06-17T17:39:32.502Z,13.40
2018-06-17T17:42:04.561Z,15.20
2018-06-17T17:44:40.621Z,14.00
2018-06-17T17:47:17.638Z,17.70
2018-06-17T17:49:49.097Z,14.57
2018-06-17T17:52:19.863Z,16.23
2018-06-17T17:54:50.687Z,14.10
2018-06-17T17:57:21.467Z,15.30
2018-06-17T17:59:52.143Z,15.50
2018-06-17T18:02:23.372Z,14.27
2018-06-17T18:04:54.318Z,13.23
2018-06-17T18:07:25.616Z,13.10
2018-06-17T18:09:57.288Z,13.07
2018-06-17T18:12:28.892Z,12.33
2018-06-17T18:15:00.710Z,11.90
2018-06-17T18:17:33.125Z,11.87
2018-06-17T18:20:04.413Z,10.20
2018-06-17T18:22:35.561Z,11.20
2018-06-17T18:25:12.069Z,10.47
2018-06-17T18:27:47.972Z,9.57
2018-06-17T18:30:23.953Z,10.23
2018-06-17T18:32:59.875Z,10.17
2018-06-17T18:35:35.579Z,11.43
2018-06-17T18:38:06.767Z,10.83
2018-06-17T18:40:37.889Z,11.30
2018-06-17T18:43:09.146Z,9.70
2018-06-17T18:45:40.308Z,10.77
2018-06-17T18:48:11.608Z,11.30
2018-06-17T18:50:43.258Z,10.63
2018-06-17T18:53:23.784Z,11.83
2018-06-17T18:55:55.009Z,11.13
2018-06-17T18:58:26.424Z,11.53
2018-06-17T19:00:57.625Z,10.80
2018-06-17T19:03:28.708Z,11.80
2018-06-17T19:05:59.929Z,11.10
2018-06-17T19:08:35.845Z,11.33
2018-06-17T19:11:13.675Z,11.70
2018-06-17T19:13:58.818Z,12.87
2018-06-17T19:16:34.682Z,13.50
2018-06-17T19:19:05.908Z,12.93
2018-06-17T19:21:37.137Z,12.93
2018-06-17T19:24:08.315Z,13.83
2018-06-17T19:26:39.345Z,12.33
2018-06-17T19:29:10.619Z,13.47
2018-06-17T19:31:42.637Z,11.87
2018-06-17T19:34:13.746Z,9.47
2018-06-17T19:36:44.536Z,5.70
2018-06-17T19:39:15.656Z,5.60
2018-06-17T19:41:47.316Z,4.73
2018-06-17T19:44:18.505Z,5.17
2018-06-17T19:46:49.606Z,5.13
2018-06-17T19:49:20.835Z,6.57
2018-06-17T19:51:56.760Z,8.20
2018-06-17T19:54:32.701Z,6.90
2018-06-17T19:57:08.972Z,5.77
2018-06-17T19:59:44.866Z,7.97
2018-06-17T20:02:15.991Z,8.20
2018-06-17T20:04:47.447Z,8.77
2018-06-17T20:07:18.611Z,9.60
2018-06-17T20:09:49.666Z,9.00
2018-06-17T20:12:20.837Z,8.10
2018-06-17T20:14:51.842Z,12.20
2018-06-17T20:17:23.140Z,10.60
2018-06-17T20:19:54.295Z,10.90
2018-06-17T20:22:25.157Z,11.30
2018-06-17T20:24:56.235Z,11.63
2018-06-17T20:27:27.397Z,11.43
2018-06-17T20:29:58.521Z,12.23
2018-06-17T20:32:34.692Z,14.40
2018-06-17T20:35:10.808Z,16.37
2018-06-17T20:37:47.610Z,18.67
2018-06-17T20:40:23.594Z,17.27
2018-06-17T20:42:59.817Z,18.70
2018-06-17T20:45:30.956Z,20.50
2018-06-17T20:48:03.914Z,18.37
2018-06-17T20:50:35.000Z,19.90
2018-06-17T20:53:06.694Z,19.40
2018-06-17T20:55:38.045Z,20.57
2018-06-17T20:58:09.295Z,18.97
2018-06-17T21:00:40.383Z,19.97
2018-06-17T21:03:11.640Z,18.80
2018-06-17T21:05:42.598Z,19.07
2018-06-17T21:08:14.692Z,18.50
2018-06-17T21:10:46.625Z,18.50
2018-06-17T21:13:18.699Z,19.00
2018-06-17T21:15:50.067Z,18.50
2018-06-17T21:18:26.106Z,18.97
2018-06-17T21:21:03.137Z,21.57
2018-06-17T21:23:39.093Z,20.30
2018-06-17T21:26:14.634Z,19.77
2018-06-17T21:28:46.802Z,20.27
2018-06-17T21:31:18.892Z,21.30
2018-06-17T21:33:49.974Z,19.83
2018-06-17T21:36:21.169Z,19.37
2018-06-17T21:38:53.340Z,19.93
2018-06-17T21:41:24.395Z,22.17
2018-06-17T21:43:55.476Z,21.83
2018-06-17T21:46:29.767Z,20.50
2018-06-17T21:49:02.403Z,19.83
2018-06-17T21:51:33.670Z,19.43
2018-06-17T21:54:10.881Z,19.33
2018-06-17T21:56:41.607Z,17.63
2018-06-17T21:59:13.400Z,19.17
2018-06-17T22:01:44.225Z,19.10
2018-06-17T22:04:19.911Z,18.70
2018-06-17T22:06:50.553Z,20.30
2018-06-17T22:09:26.240Z,18.17
2018-06-17T22:12:01.931Z,20.07
2018-06-17T22:14:37.984Z,20.57
2018-06-17T22:17:13.660Z,19.70
2018-06-17T22:19:44.779Z,21.50
2018-06-17T22:22:15.909Z,20.80
2018-06-17T22:24:47.112Z,19.30
2018-06-17T22:27:18.378Z,21.10
2018-06-17T22:29:49.395Z,20.30
2018-06-17T22:32:20.708Z,18.27
2018-06-17T22:34:55.744Z,18.50
2018-06-17T22:37:27.139Z,18.70
2018-06-17T22:39:59.379Z,18.43
2018-06-17T22:42:30.333Z,18.70
2018-06-17T22:45:02.338Z,19.50
2018-06-17T22:47:38.154Z,18.87
2018-06-17T22:50:09.589Z,20.13
2018-06-17T22:52:52.802Z,19.90
2018-06-17T22:55:24.661Z,18.60
2018-06-17T22:58:00.783Z,21.23
2018-06-17T23:00:37.477Z,20.70
2018-06-17T23:03:13.457Z,19.53
2018-06-17T23:05:49.503Z,19.47
2018-06-17T23:08:25.269Z,20.60
2018-06-17T23:10:56.991Z,21.47
2018-06-17T23:13:28.763Z,21.87
2018-06-17T23:15:59.936Z,21.50
2018-06-17T23:18:31.028Z,20.63
2018-06-17T23:21:01.997Z,21.83
2018-06-17T23:23:34.086Z,22.00
2018-06-17T23:26:08.060Z,19.70
2018-06-17T23:28:39.951Z,20.30
2018-06-17T23:31:10.931Z,20.23
2018-06-17T23:33:42.000Z,19.77
2018-06-17T23:36:13.009Z,19.87
2018-06-17T23:38:44.003Z,18.83
2018-06-17T23:41:16.914Z,18.70
2018-06-17T23:43:48.910Z,17.63
2018-06-17T23:46:24.776Z,16.37
2018-06-17T23:49:01.064Z,17.07
2018-06-17T23:51:37.018Z,16.50
2018-06-17T23:54:13.094Z,15.33
2018-06-17T23:56:44.814Z,16.60
2018-06-17T23:59:15.616Z,16.40
